createdAt,value
2022-12-11T00:00:18.344Z,1.40
2022-12-11T00:03:21.204Z,1.10
2022-12-11T00:06:24.227Z,0.95
2022-12-11T00:09:27.042Z,0.40
2022-12-11T00:12:32.771Z,1.10
2022-12-11T00:15:38.039Z,1.00
2022-12-11T00:18:40.540Z,1.10
2022-12-11T00:21:43.828Z,0.70
2022-12-11T00:24:46.291Z,1.00
2022-12-11T00:27:49.010Z,0.77
2022-12-11T00:30:52.114Z,0.52
2022-12-11T00:33:54.747Z,0.90
2022-12-11T00:36:59.171Z,0.63
2022-12-11T00:40:02.168Z,0.98
2022-12-11T00:43:04.668Z,0.45
2022-12-11T00:46:07.641Z,1.03
2022-12-11T00:49:10.131Z,0.85
2022-12-11T00:52:13.038Z,0.88
2022-12-11T00:55:15.606Z,0.60
2022-12-11T00:58:18.600Z,0.40
2022-12-11T01:01:24.351Z,0.77
2022-12-11T01:04:27.935Z,0.90
2022-12-11T01:07:30.923Z,1.35
2022-12-11T01:10:35.238Z,1.02
2022-12-11T01:13:38.935Z,1.27
2022-12-11T01:16:41.611Z,0.57
2022-12-11T01:19:44.176Z,0.70
2022-12-11T01:22:47.010Z,0.52
2022-12-11T01:25:49.839Z,1.07
2022-12-11T01:28:52.901Z,0.68
2022-12-11T01:31:55.888Z,0.75
2022-12-11T01:34:58.667Z,0.98
2022-12-11T01:38:01.712Z,0.90
2022-12-11T01:41:04.867Z,1.25
2022-12-11T01:44:16.366Z,0.90
2022-12-11T01:47:19.473Z,0.73
2022-12-11T01:50:22.965Z,0.70
2022-12-11T01:53:37.166Z,0.52
2022-12-11T01:56:42.065Z,0.40
2022-12-11T01:59:46.881Z,0.80
2022-12-11T02:02:49.560Z,0.82
2022-12-11T02:05:52.635Z,0.60
2022-12-11T02:08:55.347Z,0.22
2022-12-11T02:12:08.081Z,0.95
2022-12-11T02:15:35.579Z,0.80
2022-12-11T02:19:21.490Z,0.67
2022-12-11T02:22:50.334Z,0.50
2022-12-11T02:26:20.203Z,0.65
2022-12-11T02:29:29.176Z,0.83
2022-12-11T02:32:43.175Z,0.45
2022-12-11T02:35:47.132Z,1.00
2022-12-11T02:38:52.471Z,1.20
2022-12-11T02:41:56.627Z,0.85
2022-12-11T02:45:01.851Z,0.95
2022-12-11T02:48:08.193Z,1.35
2022-12-11T02:51:14.306Z,0.90
2022-12-11T02:54:21.865Z,0.93
2022-12-11T02:57:43.272Z,1.25
2022-12-11T03:00:46.916Z,0.30
2022-12-11T03:03:49.908Z,0.85
2022-12-11T03:06:56.495Z,0.40
2022-12-11T03:10:00.125Z,0.65
2022-12-11T03:13:05.196Z,0.82
2022-12-11T03:16:34.047Z,0.50
2022-12-11T03:19:41.591Z,0.57
2022-12-11T03:22:50.396Z,0.70
2022-12-11T03:25:59.598Z,0.40
2022-12-11T03:29:17.101Z,0.50
2022-12-11T03:32:25.488Z,0.87
2022-12-11T03:35:49.703Z,0.63
2022-12-11T03:38:58.431Z,0.52
2022-12-11T03:42:09.727Z,0.50
2022-12-11T03:45:14.345Z,0.93
2022-12-11T03:48:19.203Z,0.55
2022-12-11T03:51:24.252Z,1.05
2022-12-11T03:54:27.801Z,0.50
2022-12-11T03:57:35.275Z,0.43
2022-12-11T04:00:38.529Z,0.90
2022-12-11T04:03:41.025Z,0.60
2022-12-11T04:06:44.013Z,1.00
2022-12-11T04:09:46.586Z,0.70
2022-12-11T04:12:49.475Z,0.85
2022-12-11T04:15:52.225Z,0.47
2022-12-11T04:19:13.543Z,0.63
2022-12-11T04:22:36.186Z,0.88
2022-12-11T04:25:38.887Z,0.50
2022-12-11T04:28:42.711Z,0.82
2022-12-11T04:31:46.326Z,1.00
2022-12-11T04:34:48.782Z,0.57
2022-12-11T04:37:53.018Z,0.95
2022-12-11T04:41:10.239Z,0.60
2022-12-11T04:44:13.196Z,0.77
2022-12-11T04:47:15.888Z,0.75
2022-12-11T04:50:18.739Z,0.38
2022-12-11T04:53:21.711Z,1.30
2022-12-11T04:56:24.747Z,0.67
2022-12-11T04:59:27.723Z,0.85
2022-12-11T05:02:30.815Z,0.75
2022-12-11T05:05:33.274Z,0.83
2022-12-11T05:08:37.790Z,1.63
2022-12-11T05:11:40.594Z,0.95
2022-12-11T05:14:43.430Z,1.20
2022-12-11T05:17:46.067Z,0.85
2022-12-11T05:20:57.295Z,0.65
2022-12-11T05:24:00.145Z,0.85
2022-12-11T05:27:03.015Z,0.73
2022-12-11T05:30:06.265Z,0.75
2022-12-11T05:33:09.238Z,1.45
2022-12-11T05:36:28.832Z,1.90
2022-12-11T05:39:31.919Z,1.67
2022-12-11T05:42:34.795Z,1.05
2022-12-11T05:45:37.832Z,0.80
2022-12-11T05:48:41.391Z,1.02
2022-12-11T05:51:44.373Z,0.82
2022-12-11T05:54:50.451Z,0.95
2022-12-11T05:57:53.452Z,0.23
2022-12-11T06:00:56.176Z,0.90
2022-12-11T06:04:00.077Z,0.77
2022-12-11T06:07:02.548Z,0.70
2022-12-11T06:10:05.778Z,0.65
2022-12-11T06:13:08.585Z,1.25
2022-12-11T06:16:11.692Z,0.75
2022-12-11T06:19:16.873Z,1.30
2022-12-11T06:22:19.939Z,1.48
2022-12-11T06:25:22.616Z,1.30
2022-12-11T06:28:25.291Z,0.60
2022-12-11T06:31:28.034Z,0.90
2022-12-11T06:34:30.995Z,0.28
2022-12-11T06:37:38.125Z,0.90
2022-12-11T06:40:41.939Z,1.00
2022-12-11T06:43:44.856Z,1.20
2022-12-11T06:46:47.759Z,2.13
2022-12-11T06:49:50.566Z,1.33
2022-12-11T06:52:53.215Z,1.80
2022-12-11T06:55:55.875Z,1.63
2022-12-11T06:59:02.824Z,1.87
2022-12-11T07:02:14.714Z,1.65
2022-12-11T07:05:17.659Z,2.13
2022-12-11T07:08:20.358Z,1.97
2022-12-11T07:11:23.943Z,2.30
2022-12-11T07:14:26.800Z,0.95
2022-12-11T07:17:30.308Z,1.92
2022-12-11T07:20:38.089Z,1.45
2022-12-11T07:23:41.853Z,1.00
2022-12-11T07:26:44.684Z,0.93
2022-12-11T07:29:47.567Z,0.73
2022-12-11T07:32:50.103Z,1.60
2022-12-11T07:35:53.256Z,1.42
2022-12-11T07:38:56.098Z,1.33
2022-12-11T07:41:59.181Z,1.80
2022-12-11T07:45:02.174Z,2.20
2022-12-11T07:48:05.576Z,1.52
2022-12-11T07:51:27.652Z,2.05
2022-12-11T07:54:30.443Z,1.75
2022-12-11T07:57:33.081Z,1.20
2022-12-11T08:00:36.068Z,0.80
2022-12-11T08:03:38.637Z,1.40
2022-12-11T08:06:42.663Z,1.52
2022-12-11T08:09:45.204Z,1.47
2022-12-11T08:12:48.045Z,1.10
2022-12-11T08:15:51.382Z,1.92
2022-12-11T08:18:54.068Z,1.90
2022-12-11T08:21:56.739Z,1.90
2022-12-11T08:24:59.757Z,1.50
2022-12-11T08:28:04.426Z,1.55
2022-12-11T08:31:09.824Z,2.13
2022-12-11T08:34:14.232Z,1.70
2022-12-11T08:37:17.210Z,2.15
2022-12-11T08:40:20.377Z,2.10
2022-12-11T08:43:23.195Z,2.17
2022-12-11T08:46:28.037Z,1.67
2022-12-11T08:49:34.378Z,2.95
2022-12-11T08:52:37.230Z,2.40
2022-12-11T08:55:39.838Z,1.48
2022-12-11T08:58:42.967Z,2.42
2022-12-11T09:01:46.133Z,2.17
2022-12-11T09:04:48.740Z,2.25
2022-12-11T09:07:51.697Z,1.92
2022-12-11T09:10:54.701Z,1.23
2022-12-11T09:14:02.122Z,2.20
2022-12-11T09:17:08.872Z,1.60
2022-12-11T09:20:11.826Z,2.20
2022-12-11T09:23:14.571Z,1.90
2022-12-11T09:26:20.442Z,2.55
2022-12-11T09:29:23.599Z,4.45
2022-12-11T09:32:26.699Z,2.30
2022-12-11T09:35:29.184Z,2.53
2022-12-11T09:38:33.643Z,3.83
2022-12-11T09:41:55.792Z,3.77
2022-12-11T09:45:03.128Z,2.17
2022-12-11T09:48:07.849Z,3.17
2022-12-11T09:51:19.768Z,4.40
2022-12-11T09:54:22.371Z,3.45
2022-12-11T09:58:02.254Z,3.95
2022-12-11T10:01:31.578Z,4.47
2022-12-11T10:04:52.729Z,3.73
2022-12-11T10:08:23.653Z,7.90
2022-12-11T10:11:41.474Z,4.25
2022-12-11T10:15:21.354Z,7.13
2022-12-11T10:18:26.378Z,3.75
2022-12-11T10:21:37.994Z,5.18
2022-12-11T10:28:16.764Z,7.88
2022-12-11T10:31:22.153Z,4.90
2022-12-11T10:34:36.490Z,6.57
2022-12-11T10:37:40.325Z,13.63
2022-12-11T10:40:50.530Z,17.23
2022-12-11T10:43:54.016Z,16.75
2022-12-11T10:47:07.301Z,15.87
2022-12-11T10:50:24.093Z,8.68
2022-12-11T10:53:29.331Z,6.65
2022-12-11T10:56:33.934Z,7.72
2022-12-11T10:59:48.124Z,7.57
2022-12-11T11:02:50.983Z,9.65
2022-12-11T11:06:22.446Z,9.00
2022-12-11T11:09:30.786Z,6.43
2022-12-11T11:12:39.775Z,7.68
2022-12-11T11:15:42.737Z,6.55
2022-12-11T11:18:54.608Z,8.17
2022-12-11T11:22:00.963Z,8.63
2022-12-11T11:25:05.216Z,7.93
2022-12-11T11:28:38.255Z,4.85
2022-12-11T11:31:42.419Z,4.55
2022-12-11T11:34:45.207Z,5.15
2022-12-11T11:38:09.943Z,8.43
2022-12-11T11:41:15.690Z,5.20
2022-12-11T11:44:41.191Z,9.05
2022-12-11T11:47:57.425Z,10.10
2022-12-11T11:51:12.922Z,7.03
2022-12-11T11:54:28.419Z,3.90
2022-12-11T11:57:47.847Z,3.15
2022-12-11T12:00:54.198Z,3.70
2022-12-11T12:03:57.615Z,3.80
2022-12-11T12:07:24.283Z,4.63
2022-12-11T12:10:38.556Z,4.93
2022-12-11T12:13:50.160Z,8.83
2022-12-11T12:17:14.432Z,7.97
2022-12-11T12:20:43.436Z,8.07
2022-12-11T12:24:18.008Z,7.40
2022-12-11T12:27:51.971Z,5.18
2022-12-11T12:31:00.736Z,5.78
2022-12-11T12:34:25.081Z,28.30
2022-12-11T12:37:27.733Z,9.32
2022-12-11T12:40:48.016Z,10.07
2022-12-11T12:44:02.431Z,8.85
2022-12-11T12:47:16.906Z,7.60
2022-12-11T12:50:25.849Z,8.98
2022-12-11T12:53:33.688Z,15.23
2022-12-11T12:56:37.671Z,22.03
2022-12-11T12:59:40.267Z,7.82
2022-12-11T13:02:51.509Z,15.98
2022-12-11T13:06:04.136Z,12.68
2022-12-11T13:09:15.166Z,10.02
2022-12-11T13:12:33.171Z,10.32
2022-12-11T13:15:43.063Z,8.50
2022-12-11T13:18:48.333Z,7.83
2022-12-11T13:22:15.042Z,3.70
2022-12-11T13:25:25.698Z,8.07
2022-12-11T13:28:33.575Z,13.47
2022-12-11T13:31:38.386Z,9.23
2022-12-11T13:34:44.656Z,8.02
2022-12-11T13:37:51.162Z,7.85
2022-12-11T13:40:55.729Z,10.70
2022-12-11T13:43:58.989Z,9.88
2022-12-11T13:47:03.899Z,8.13
2022-12-11T13:50:23.551Z,4.20
2022-12-11T13:53:26.524Z,4.03
2022-12-11T13:56:29.776Z,10.73
2022-12-11T13:59:35.856Z,6.20
2022-12-11T14:02:42.851Z,4.25
2022-12-11T14:05:45.822Z,3.47
2022-12-11T14:08:51.875Z,3.35
2022-12-11T14:11:57.335Z,4.13
2022-12-11T14:15:02.421Z,5.15
2022-12-11T14:18:05.758Z,12.73
2022-12-11T14:21:16.834Z,12.53
2022-12-11T14:24:19.495Z,6.80
2022-12-11T14:27:22.934Z,4.40
2022-12-11T14:30:31.675Z,3.60
2022-12-11T14:33:40.794Z,4.30
2022-12-11T14:36:46.346Z,8.85
2022-12-11T14:40:03.554Z,5.13
2022-12-11T14:43:21.196Z,7.30
2022-12-11T14:46:38.400Z,9.88
2022-12-11T14:49:54.007Z,12.25
2022-12-11T14:53:07.898Z,7.60
2022-12-11T14:56:17.867Z,13.02
2022-12-11T14:59:30.108Z,13.07
2022-12-11T15:02:37.156Z,7.73
2022-12-11T15:05:53.822Z,9.25
2022-12-11T15:08:56.670Z,17.33
2022-12-11T15:12:14.792Z,6.00
2022-12-11T15:15:18.458Z,7.82
2022-12-11T15:18:28.380Z,18.67
2022-12-11T15:21:38.206Z,20.00
2022-12-11T15:24:43.377Z,7.47
2022-12-11T15:27:49.772Z,7.65
2022-12-11T15:30:59.440Z,12.40
2022-12-11T15:34:02.705Z,34.97
2022-12-11T15:37:18.008Z,15.43
2022-12-11T15:40:21.794Z,19.45
2022-12-11T15:43:25.186Z,11.45
2022-12-11T15:46:27.927Z,9.45
2022-12-11T15:49:30.700Z,5.95
2022-12-11T15:52:34.655Z,11.35
2022-12-11T15:55:39.419Z,6.97
2022-12-11T15:58:44.670Z,7.75
2022-12-11T16:01:47.764Z,11.52
2022-12-11T16:04:50.787Z,17.07
2022-12-11T16:07:54.844Z,23.73
2022-12-11T16:10:58.155Z,22.05
2022-12-11T16:14:04.511Z,13.30
2022-12-11T16:17:09.598Z,9.88
2022-12-11T16:20:14.073Z,8.25
2022-12-11T16:23:17.574Z,6.88
2022-12-11T16:26:20.637Z,22.03
2022-12-11T16:29:23.479Z,24.33
2022-12-11T16:32:26.740Z,27.40
2022-12-11T16:35:29.940Z,14.47
2022-12-11T16:38:32.953Z,6.22
2022-12-11T16:41:36.575Z,8.07
2022-12-11T16:44:43.827Z,17.83
2022-12-11T16:47:47.428Z,7.45
2022-12-11T16:50:53.870Z,7.95
2022-12-11T16:53:56.459Z,12.70
2022-12-11T16:56:59.588Z,26.30
2022-12-11T17:00:02.169Z,16.30
2022-12-11T17:03:05.258Z,20.23
2022-12-11T17:06:10.193Z,12.23
2022-12-11T17:09:13.080Z,11.02
2022-12-11T17:12:15.979Z,10.32
2022-12-11T17:15:18.655Z,7.40
2022-12-11T17:18:21.780Z,6.93
2022-12-11T17:21:24.832Z,7.00
2022-12-11T17:24:27.521Z,16.95
2022-12-11T17:27:30.890Z,15.23
2022-12-11T17:30:33.680Z,12.63
2022-12-11T17:33:36.715Z,8.32
2022-12-11T17:36:39.441Z,6.07
2022-12-11T17:39:42.444Z,11.02
2022-12-11T17:42:47.619Z,21.77
2022-12-11T17:45:52.702Z,18.83
2022-12-11T17:48:56.439Z,12.05
2022-12-11T17:51:59.396Z,6.53
2022-12-11T17:55:03.172Z,6.18
2022-12-11T17:58:06.223Z,12.47
2022-12-11T18:01:11.010Z,10.52
2022-12-11T18:04:15.419Z,11.18
2022-12-11T18:07:19.235Z,12.47
2022-12-11T18:10:23.283Z,11.00
2022-12-11T18:13:26.459Z,10.85
2022-12-11T18:16:33.987Z,16.92
2022-12-11T18:19:41.415Z,15.73
2022-12-11T18:22:47.304Z,13.55
2022-12-11T18:25:50.495Z,14.57
2022-12-11T18:28:53.973Z,15.57
2022-12-11T18:31:56.831Z,13.93
2022-12-11T18:34:59.851Z,16.40
2022-12-11T18:38:02.730Z,13.27
2022-12-11T18:41:07.871Z,14.38
2022-12-11T18:44:10.846Z,13.35
2022-12-11T18:47:13.675Z,16.27
2022-12-11T18:50:16.699Z,22.98
2022-12-11T18:53:20.103Z,21.35
2022-12-11T18:56:23.428Z,20.33
2022-12-11T18:59:27.593Z,17.10
2022-12-11T19:02:30.358Z,17.98
2022-12-11T19:05:34.075Z,10.75
2022-12-11T19:08:38.107Z,10.13
2022-12-11T19:11:41.851Z,14.93
2022-12-11T19:14:44.779Z,14.68
2022-12-11T19:17:47.664Z,14.45
2022-12-11T19:20:57.662Z,21.40
2022-12-11T19:24:08.389Z,33.75
2022-12-11T19:27:13.615Z,17.95
2022-12-11T19:30:17.273Z,15.17
2022-12-11T19:33:21.976Z,20.75
2022-12-11T19:36:26.831Z,17.00
2022-12-11T19:39:29.350Z,20.97
2022-12-11T19:42:32.520Z,25.15
2022-12-11T19:45:35.791Z,11.85
2022-12-11T19:48:41.511Z,13.00
2022-12-11T19:51:44.973Z,21.70
2022-12-11T19:54:47.816Z,20.52
2022-12-11T19:57:50.775Z,24.30
2022-12-11T20:00:54.304Z,25.40
2022-12-11T20:04:00.092Z,28.73
2022-12-11T20:07:03.270Z,33.97
2022-12-11T20:10:07.225Z,32.97
2022-12-11T20:13:10.192Z,31.00
2022-12-11T20:16:14.417Z,27.45
2022-12-11T20:19:17.411Z,25.67
2022-12-11T20:22:20.099Z,23.77
2022-12-11T20:25:24.257Z,15.77
2022-12-11T20:28:26.879Z,16.83
2022-12-11T20:31:29.980Z,20.23
2022-12-11T20:34:32.819Z,16.48
2022-12-11T20:37:36.175Z,14.70
2022-12-11T20:40:46.105Z,13.80
2022-12-11T20:43:53.404Z,14.02
2022-12-11T20:46:56.136Z,13.93
2022-12-11T20:49:58.931Z,24.50
2022-12-11T20:53:01.737Z,42.33
2022-12-11T20:56:17.414Z,36.03
2022-12-11T20:59:20.322Z,47.40
2022-12-11T21:02:23.384Z,42.67
2022-12-11T21:05:26.168Z,32.80
2022-12-11T21:08:29.301Z,28.27
2022-12-11T21:11:32.327Z,19.30
2022-12-11T21:14:35.138Z,14.45
2022-12-11T21:17:38.679Z,11.05
2022-12-11T21:20:41.663Z,9.95
2022-12-11T21:23:45.082Z,9.75
2022-12-11T21:26:48.831Z,13.45
2022-12-11T21:29:51.712Z,12.30
2022-12-11T21:32:54.491Z,13.40
2022-12-11T21:35:59.122Z,16.20
2022-12-11T21:39:02.639Z,14.95
2022-12-11T21:42:05.223Z,12.90
2022-12-11T21:45:59.373Z,10.82
2022-12-11T21:48:33.689Z,10.93
2022-12-11T21:51:42.525Z,9.10
2022-12-11T21:54:49.267Z,9.32
2022-12-11T21:57:54.570Z,10.10
2022-12-11T22:00:57.738Z,8.30
2022-12-11T22:04:00.787Z,8.33
2022-12-11T22:07:03.984Z,8.27
2022-12-11T22:10:07.670Z,6.80
2022-12-11T22:13:10.332Z,8.27
2022-12-11T22:16:13.157Z,10.32
2022-12-11T22:19:16.270Z,11.07
2022-12-11T22:22:19.731Z,13.35
2022-12-11T22:25:22.421Z,11.48
2022-12-11T22:28:25.318Z,7.63
2022-12-11T22:31:28.262Z,4.38
2022-12-11T22:34:31.048Z,6.87
2022-12-11T22:37:33.562Z,8.40
2022-12-11T22:40:41.970Z,6.65
2022-12-11T22:43:44.505Z,4.40
2022-12-11T22:46:50.265Z,6.88
2022-12-11T22:49:53.329Z,7.03
2022-12-11T22:52:55.978Z,9.40
2022-12-11T22:55:58.647Z,6.70
2022-12-11T22:59:01.366Z,9.63
2022-12-11T23:02:04.426Z,8.82
2022-12-11T23:05:07.986Z,9.03
2022-12-11T23:08:10.528Z,8.52
2022-12-11T23:11:24.275Z,8.82
2022-12-11T23:14:27.353Z,7.73
2022-12-11T23:17:30.174Z,8.10
2022-12-11T23:20:36.673Z,7.97
2022-12-11T23:23:39.592Z,9.23
2022-12-11T23:26:42.584Z,9.32
2022-12-11T23:29:46.089Z,8.85
2022-12-11T23:32:48.900Z,9.35
2022-12-11T23:35:51.934Z,9.37
2022-12-11T23:38:55.947Z,8.02
2022-12-11T23:41:58.823Z,7.55
2022-12-11T23:45:01.500Z,10.40
2022-12-11T23:48:04.785Z,9.18
2022-12-11T23:51:07.889Z,8.82
2022-12-11T23:54:10.617Z,9.02
2022-12-11T23:57:13.227Z,7.60
